Skip Navigation Links Skip Navigation Links

Current Weather

Selfridge Angb, Mount Clemens, Mich.

For information only: do not use for flight planning or navigation.
Latest weather
Observation time Saturday, October 19, 2019 5:56 AM EDT
Local time Saturday, October 19, 2019 6:19 AM EDT
Flight conditions Visual Meteorological Conditions
Winds
Wind direction North-Northwest (330°)
Wind speed 5 mph
Visibility 10 mi.
Sky condition
Ceiling unlimited
Sky clear
Temperature 34°F
Dewpoint 34°F
Altimeter 30.00 in.Hg
Derived measurements
Relative humidity 100%
Wind chill 30°F
Density altitude -1081 ft.
Sea-level pressure 30.03 in.Hg
Remarks
Fully automated report.
System requires maintenance.
Automated weather observing station with precipitation discriminator.
METAR KMTC 190956Z AUTO 33004KT 10SM CLR 01/01 A3000 RMK AO2 SLP168 T00130013 $

Settings

Location code

InnerDrive.Weather 4.0.6770.0 Release CLR 4.0.30319.42000
Copyright ©2018 Inner Drive Technology. All rights reserved. Portions Copyright ©1986-2018 David Braverman.

Find weather

Site navigation


Skip Navigation Links

Place info

Page info

PayPal - The safer, easier way to pay online!

Return home.

Copyright ©2019 Inner Drive Technology. Purveyors of fine, hand-crafted computer software. Page printed 2019-10-19T10:19:24 UTC.